Lyman, Wyoming
Current Conditions -  °F | °C
As of 2:35 PM on Thursday 23 Oct 2014 (Local Time) from KFBR Reporting Station
Clear Clear  
Wind Chill: 20°   Ceiling: Unl
Heat Index: 20°   Visibility: NA
Dew Point: -5°   Wind: 24mph
Humidity: 17%   Direction: 280°W
Pressure: 30.2"   Gusts: 32mph
Location:  41.33°N, 110.29°W
Report Text: KFBR 232035Z AUTO 28021G28KT CLR 20/M05 A3020 RMK AO2 T02041053 PWINO
Loading
Personal Weather Stations






























Interactive Weather Map
Tropical Storm Tracking
New forecast layout! Learn more

10-Day Weather Forecast

Advertisements
Track Severe Weather on mobile